createdAt,value
2019-04-23T00:04:01.099Z,6.93
2019-04-23T00:06:32.285Z,6.73
2019-04-23T00:09:21.191Z,6.37
2019-04-23T00:14:15.152Z,6.57
2019-04-23T00:16:44.045Z,5.70
2019-04-23T00:19:16.856Z,6.40
2019-04-23T00:21:57.338Z,6.40
2019-04-23T00:27:31.984Z,5.93
2019-04-23T00:29:57.619Z,5.87
2019-04-23T00:37:35.433Z,6.50
2019-04-23T00:40:02.974Z,6.50
2019-04-23T00:42:44.702Z,6.00
2019-04-23T00:45:08.304Z,6.10
2019-04-23T00:47:48.306Z,5.77
2019-04-23T00:50:38.513Z,6.40
2019-04-23T00:52:50.281Z,6.93
2019-04-23T00:55:26.170Z,6.83
2019-04-23T00:57:57.845Z,6.37
2019-04-23T01:00:33.693Z,6.40
2019-04-23T01:05:35.601Z,5.93
2019-04-23T01:08:08.318Z,6.20
2019-04-23T01:11:09.607Z,6.70
2019-04-23T01:16:05.413Z,6.80
2019-04-23T01:21:03.428Z,5.90
2019-04-23T01:23:58.897Z,6.60
2019-04-23T01:26:58.263Z,6.60
2019-04-23T01:29:30.520Z,6.53
2019-04-23T01:32:02.810Z,6.30
2019-04-23T01:34:31.290Z,6.60
2019-04-23T01:37:00.787Z,6.33
2019-04-23T01:39:27.791Z,7.07
2019-04-23T01:42:11.841Z,6.50
2019-04-23T01:44:42.076Z,7.00
2019-04-23T01:47:17.314Z,6.67
2019-04-23T01:49:53.943Z,6.47
2019-04-23T01:52:17.930Z,7.73
2019-04-23T01:54:52.853Z,6.93
2019-04-23T01:57:28.928Z,6.70
2019-04-23T01:59:58.445Z,6.80
2019-04-23T02:02:29.820Z,7.20
2019-04-23T02:05:01.375Z,7.13
2019-04-23T02:07:39.936Z,6.40
2019-04-23T02:10:17.811Z,6.40
2019-04-23T02:12:42.261Z,7.03
2019-04-23T02:15:12.226Z,6.90
2019-04-23T02:17:47.442Z,6.57
2019-04-23T02:20:24.191Z,6.70
2019-04-23T02:25:39.675Z,6.30
2019-04-23T02:28:04.814Z,6.07
2019-04-23T02:30:58.223Z,6.47
2019-04-23T02:38:18.468Z,6.90
2019-04-23T02:50:54.052Z,6.93
2019-04-23T02:53:44.343Z,6.90
2019-04-23T02:56:30.912Z,5.90
2019-04-23T02:58:49.045Z,6.47
2019-04-23T03:03:58.035Z,6.37
2019-04-23T03:06:14.212Z,7.37
2019-04-23T03:08:46.638Z,6.60
2019-04-23T03:14:03.639Z,6.60
2019-04-23T03:17:47.275Z,6.60
2019-04-23T03:19:24.187Z,6.63
2019-04-23T03:24:54.990Z,6.33
2019-04-23T03:45:16.713Z,6.03
2019-04-23T03:47:37.301Z,6.90
2019-04-23T03:52:51.057Z,6.47
2019-04-23T03:55:28.069Z,6.90
2019-04-23T03:57:47.945Z,7.30
2019-04-23T04:03:10.786Z,6.43
2019-04-23T04:05:48.270Z,6.10
2019-04-23T04:08:07.957Z,6.23
2019-04-23T04:10:41.629Z,6.07
2019-04-23T04:13:08.704Z,6.63
2019-04-23T04:23:22.725Z,7.10
2019-04-23T04:36:10.717Z,5.70
2019-04-23T04:43:45.248Z,6.80
2019-04-23T04:48:48.771Z,7.07
2019-04-23T04:51:19.442Z,6.17
2019-04-23T05:01:24.843Z,5.83
2019-04-23T05:03:45.823Z,6.27
2019-04-23T05:06:44.570Z,5.93
2019-04-23T05:09:00.682Z,6.23
2019-04-23T05:11:46.095Z,5.57
2019-04-23T05:16:33.470Z,5.80
2019-04-23T05:21:54.454Z,6.10
2019-04-23T05:24:21.464Z,6.07
2019-04-23T05:26:51.774Z,5.67
2019-04-23T05:29:20.058Z,6.10
2019-04-23T05:31:54.893Z,5.47
2019-04-23T05:34:26.319Z,6.03
2019-04-23T05:39:38.167Z,5.40
2019-04-23T05:42:10.753Z,5.37
2019-04-23T05:44:44.824Z,5.83
2019-04-23T05:47:25.464Z,5.80
2019-04-23T05:52:24.482Z,5.57
2019-04-23T05:54:56.238Z,5.47
2019-04-23T05:57:20.557Z,5.70
2019-04-23T05:59:54.878Z,6.03
2019-04-23T06:02:33.779Z,5.73
2019-04-23T06:05:03.791Z,5.10
2019-04-23T06:07:39.306Z,5.90
2019-04-23T06:10:14.562Z,5.40
2019-04-23T06:12:36.872Z,5.70
2019-04-23T06:15:13.404Z,5.43
2019-04-23T06:17:46.629Z,6.10
2019-04-23T06:20:15.400Z,5.47
2019-04-23T06:22:51.027Z,5.50
2019-04-23T06:25:39.933Z,5.43
2019-04-23T06:27:59.271Z,5.70
2019-04-23T06:30:38.738Z,6.73
2019-04-23T06:32:59.648Z,5.77
2019-04-23T06:35:43.800Z,5.53
2019-04-23T06:40:43.594Z,6.10
2019-04-23T06:43:21.489Z,5.77
2019-04-23T06:45:45.982Z,5.87
2019-04-23T06:48:28.918Z,5.93
2019-04-23T06:50:58.820Z,6.03
2019-04-23T06:53:23.958Z,6.03
2019-04-23T06:56:08.854Z,5.27
2019-04-23T06:58:39.773Z,5.63
2019-04-23T07:01:07.624Z,5.87
2019-04-23T07:09:09.918Z,6.30
2019-04-23T07:16:34.722Z,6.10
2019-04-23T07:18:54.595Z,5.63
2019-04-23T07:21:27.955Z,5.80
2019-04-23T07:29:11.015Z,6.20
2019-04-23T07:34:20.413Z,6.30
2019-04-23T07:36:45.843Z,6.17
2019-04-23T07:39:23.030Z,6.00
2019-04-23T07:45:02.012Z,5.77
2019-04-23T07:48:01.859Z,5.87
2019-04-23T07:50:38.164Z,6.87
2019-04-23T07:55:34.396Z,5.60
2019-04-23T07:58:06.513Z,5.90
2019-04-23T08:00:44.364Z,7.00
2019-04-23T08:03:17.636Z,6.27
2019-04-23T08:05:39.582Z,6.07
2019-04-23T08:08:11.758Z,6.30
2019-04-23T08:11:23.441Z,6.17
2019-04-23T08:16:18.035Z,6.80
2019-04-23T08:18:52.681Z,6.23
2019-04-23T08:21:14.862Z,5.50
2019-04-23T08:30:24.064Z,5.90
2019-04-23T08:32:06.938Z,6.27
2019-04-23T08:39:43.565Z,6.00
2019-04-23T08:42:36.671Z,6.27
2019-04-23T08:45:07.117Z,6.10
2019-04-23T08:49:56.720Z,5.90
2019-04-23T08:52:37.654Z,5.60
2019-04-23T08:55:08.327Z,6.00
2019-04-23T08:57:39.775Z,6.10
2019-04-23T09:00:17.676Z,6.53
2019-04-23T09:02:56.701Z,5.70
2019-04-23T09:05:23.533Z,5.80
2019-04-23T09:07:59.987Z,6.40
2019-04-23T09:10:29.965Z,5.60
2019-04-23T09:13:09.147Z,5.57
2019-04-23T09:18:06.406Z,5.93
2019-04-23T09:20:32.779Z,5.90
2019-04-23T09:23:01.940Z,5.80
2019-04-23T09:28:21.123Z,5.97
2019-04-23T09:30:49.560Z,6.10
2019-04-23T09:33:49.794Z,6.10
2019-04-23T09:39:10.086Z,6.20
2019-04-23T09:41:43.575Z,6.07
2019-04-23T09:44:57.107Z,6.50
2019-04-23T09:49:46.540Z,5.60
2019-04-23T09:52:20.147Z,5.73
2019-04-23T09:55:02.104Z,5.97
2019-04-23T09:57:26.506Z,5.87
2019-04-23T10:00:01.673Z,5.83
2019-04-23T10:02:23.704Z,6.30
2019-04-23T10:04:51.989Z,5.87
2019-04-23T10:07:21.199Z,5.80
2019-04-23T10:09:42.383Z,6.13
2019-04-23T10:12:14.650Z,5.77
2019-04-23T10:14:56.702Z,5.80
2019-04-23T10:17:19.919Z,5.33
2019-04-23T10:19:50.932Z,6.00
2019-04-23T10:22:22.956Z,5.93
2019-04-23T10:24:55.283Z,6.50
2019-04-23T10:27:27.302Z,6.10
2019-04-23T10:29:59.496Z,5.70
2019-04-23T10:32:31.772Z,5.37
2019-04-23T10:35:14.783Z,5.57
2019-04-23T10:37:46.088Z,5.97
2019-04-23T10:40:14.275Z,5.23
2019-04-23T10:42:44.015Z,5.63
2019-04-23T10:45:48.397Z,3.83
2019-04-23T10:48:49.955Z,5.43
2019-04-23T10:51:37.008Z,6.10
2019-04-23T10:54:15.819Z,5.43
2019-04-23T10:56:40.823Z,5.60
2019-04-23T10:59:15.044Z,6.00
2019-04-23T11:01:45.509Z,5.93
2019-04-23T11:04:34.067Z,6.37
2019-04-23T11:09:34.806Z,5.23
2019-04-23T11:12:12.787Z,5.93
2019-04-23T11:14:42.158Z,6.50
2019-04-23T11:19:54.492Z,5.90
2019-04-23T11:22:36.198Z,6.47
2019-04-23T11:24:48.392Z,7.20
2019-04-23T11:27:22.181Z,6.43
2019-04-23T11:30:04.015Z,6.60
2019-04-23T11:35:14.322Z,5.80
2019-04-23T11:37:40.953Z,6.60
2019-04-23T11:40:13.769Z,5.80
2019-04-23T11:42:38.214Z,6.13
2019-04-23T11:45:14.489Z,5.87
2019-04-23T11:48:13.965Z,5.93
2019-04-23T11:50:24.286Z,6.70
2019-04-23T11:52:51.739Z,6.57
2019-04-23T11:58:00.771Z,6.67
2019-04-23T12:00:26.467Z,6.00
2019-04-23T12:03:04.173Z,5.43
2019-04-23T12:08:56.705Z,6.73
2019-04-23T12:12:31.191Z,6.30
2019-04-23T12:14:30.535Z,5.97
2019-04-23T12:19:53.029Z,6.30
2019-04-23T12:22:07.825Z,6.20
2019-04-23T12:27:17.068Z,7.07
2019-04-23T12:29:50.649Z,6.50
2019-04-23T12:35:04.386Z,6.80
2019-04-23T12:45:27.127Z,5.07
2019-04-23T12:47:59.883Z,6.67
2019-04-23T12:58:01.174Z,6.70
2019-04-23T13:00:47.805Z,6.73
2019-04-23T13:03:18.289Z,6.17
2019-04-23T13:05:34.045Z,7.60
2019-04-23T13:10:47.978Z,8.53
2019-04-23T13:13:40.652Z,7.17
2019-04-23T13:16:12.749Z,7.50
2019-04-23T13:20:58.585Z,7.03
2019-04-23T13:23:32.723Z,7.07
2019-04-23T13:26:18.420Z,6.10
2019-04-23T13:28:37.549Z,5.97
2019-04-23T13:31:10.640Z,6.43
2019-04-23T13:33:58.467Z,6.23
2019-04-23T13:38:48.796Z,6.40
2019-04-23T13:41:20.392Z,6.60
2019-04-23T13:44:09.537Z,6.33
2019-04-23T13:46:32.460Z,6.30
2019-04-23T13:49:00.578Z,6.47
2019-04-23T13:51:39.379Z,6.27
2019-04-23T13:54:46.806Z,6.50
2019-04-23T13:57:12.916Z,6.90
2019-04-23T13:59:22.542Z,6.70
2019-04-23T14:01:48.051Z,6.73
2019-04-23T14:07:25.178Z,6.73
2019-04-23T14:09:54.914Z,6.93
2019-04-23T14:12:22.329Z,7.17
2019-04-23T14:15:14.911Z,6.90
2019-04-23T14:17:37.980Z,6.77
2019-04-23T14:20:05.713Z,7.20
2019-04-23T14:23:04.588Z,6.20
2019-04-23T14:25:08.346Z,7.17
2019-04-23T14:28:05.817Z,7.23
2019-04-23T14:32:45.725Z,9.33
2019-04-23T14:35:28.444Z,9.10
2019-04-23T14:38:04.984Z,9.47
2019-04-23T14:40:29.804Z,9.43
2019-04-23T14:43:03.425Z,9.27
2019-04-23T14:46:12.093Z,7.97
2019-04-23T14:48:08.361Z,7.13
2019-04-23T14:53:18.507Z,10.00
2019-04-23T14:58:20.708Z,9.50
2019-04-23T15:01:14.116Z,10.70
2019-04-23T15:03:32.444Z,10.87
2019-04-23T15:08:40.330Z,11.27
2019-04-23T15:11:19.269Z,11.03
2019-04-23T15:13:44.645Z,10.80
2019-04-23T15:16:17.017Z,11.07
2019-04-23T15:19:25.686Z,10.40
2019-04-23T15:27:45.667Z,9.83
2019-04-23T15:29:01.422Z,11.30
2019-04-23T15:34:30.461Z,10.73
2019-04-23T15:37:15.519Z,10.43
2019-04-23T15:42:08.093Z,10.73
2019-04-23T15:44:16.172Z,10.73
2019-04-23T15:49:37.567Z,11.20
2019-04-23T15:54:42.954Z,10.83
2019-04-23T15:57:45.203Z,11.03
2019-04-23T15:59:53.165Z,11.00
2019-04-23T16:01:50.580Z,10.50
2019-04-23T16:04:21.401Z,10.13
2019-04-23T16:06:52.202Z,11.07
2019-04-23T16:10:00.025Z,9.83
2019-04-23T16:12:17.776Z,9.93
2019-04-23T16:15:03.044Z,8.80
2019-04-23T16:22:38.206Z,8.80
2019-04-23T16:27:44.274Z,9.43
2019-04-23T16:36:05.955Z,8.77
2019-04-23T16:38:38.728Z,7.43
2019-04-23T16:41:07.915Z,8.20
2019-04-23T16:43:40.397Z,7.83
2019-04-23T16:46:11.882Z,8.00
2019-04-23T16:54:10.020Z,6.73
2019-04-23T16:57:01.246Z,6.83
2019-04-23T17:02:02.064Z,6.50
2019-04-23T17:09:48.119Z,6.53
2019-04-23T17:12:10.477Z,7.30
2019-04-23T17:14:41.442Z,8.10
2019-04-23T17:17:23.005Z,8.23
2019-04-23T17:20:06.485Z,6.60
2019-04-23T17:22:35.304Z,7.87
2019-04-23T17:25:15.962Z,7.30
2019-04-23T17:27:48.930Z,8.00
2019-04-23T17:30:22.182Z,7.53
2019-04-23T17:33:07.889Z,7.90
2019-04-23T17:36:02.770Z,8.60
2019-04-23T17:38:23.289Z,8.33
2019-04-23T17:41:07.354Z,8.43
2019-04-23T17:43:44.374Z,7.57
2019-04-23T17:46:14.362Z,8.27
2019-04-23T17:49:01.891Z,8.43
2019-04-23T17:51:44.802Z,8.77
2019-04-23T17:54:06.486Z,8.40
2019-04-23T17:59:18.033Z,8.77
2019-04-23T18:02:16.438Z,8.53
2019-04-23T18:04:33.010Z,8.20
2019-04-23T18:07:05.671Z,7.77
2019-04-23T18:09:51.692Z,7.57
2019-04-23T18:12:22.631Z,7.40
2019-04-23T18:14:50.870Z,7.60
2019-04-23T18:17:35.563Z,7.63
2019-04-23T18:20:12.447Z,7.60
2019-04-23T18:22:47.033Z,7.77
2019-04-23T18:25:23.965Z,8.07
2019-04-23T18:28:16.264Z,7.67
2019-04-23T18:31:01.460Z,7.20
2019-04-23T18:33:54.351Z,7.57
2019-04-23T18:36:08.210Z,7.13
2019-04-23T18:41:26.133Z,7.67
2019-04-23T18:44:02.911Z,7.73
2019-04-23T18:46:43.787Z,7.73
2019-04-23T18:49:22.267Z,6.93
2019-04-23T18:51:58.081Z,7.80
2019-04-23T18:54:34.716Z,7.30
2019-04-23T19:02:49.437Z,7.97
2019-04-23T19:05:32.760Z,6.10
2019-04-23T19:11:13.657Z,6.43
2019-04-23T19:13:50.875Z,6.40
2019-04-23T19:16:28.011Z,6.20
2019-04-23T19:19:04.504Z,4.20
2019-04-23T19:22:07.064Z,4.43
2019-04-23T19:24:22.900Z,3.87
2019-04-23T19:27:10.685Z,2.90
2019-04-23T19:29:46.280Z,4.47
2019-04-23T19:32:06.736Z,4.17
2019-04-23T19:34:43.830Z,3.73
2019-04-23T19:37:23.160Z,3.37
2019-04-23T19:39:53.395Z,4.40
2019-04-23T19:42:44.723Z,3.57
2019-04-23T19:45:15.990Z,4.30
2019-04-23T19:47:55.893Z,4.43
2019-04-23T19:50:23.949Z,4.27
2019-04-23T19:55:35.197Z,4.17
2019-04-23T20:01:03.727Z,3.77
2019-04-23T20:03:28.257Z,4.87
2019-04-23T20:06:06.005Z,3.87
2019-04-23T20:09:12.509Z,3.77
2019-04-23T20:11:13.525Z,4.03
2019-04-23T20:16:46.553Z,4.50
2019-04-23T20:18:54.803Z,4.40
2019-04-23T20:21:38.912Z,4.57
2019-04-23T20:24:21.482Z,4.90
2019-04-23T20:26:45.904Z,4.27
2019-04-23T20:40:31.505Z,4.83
2019-04-23T20:48:32.145Z,5.30
2019-04-23T20:50:44.562Z,5.50
2019-04-23T20:53:19.475Z,5.33
2019-04-23T20:58:47.661Z,5.40
2019-04-23T21:01:18.645Z,4.77
2019-04-23T21:03:46.977Z,5.03
2019-04-23T21:06:30.525Z,5.00
2019-04-23T21:11:14.483Z,4.77
2019-04-23T21:16:26.791Z,4.13
2019-04-23T21:19:10.599Z,5.13
2019-04-23T21:21:35.431Z,4.63
2019-04-23T21:24:00.048Z,4.40
2019-04-23T21:26:37.236Z,4.57
2019-04-23T21:28:59.148Z,4.93
2019-04-23T21:36:49.430Z,5.03
2019-04-23T21:40:00.992Z,5.87
2019-04-23T21:42:21.205Z,6.43
2019-04-23T21:44:57.968Z,6.17
2019-04-23T21:47:25.536Z,6.07
2019-04-23T21:50:19.159Z,5.70
2019-04-23T21:52:34.803Z,5.67
2019-04-23T21:55:02.542Z,6.67
2019-04-23T21:57:44.301Z,5.43
2019-04-23T22:00:08.663Z,5.90
2019-04-23T22:02:49.044Z,6.53
2019-04-23T22:05:19.436Z,5.30
2019-04-23T22:08:02.507Z,6.60
2019-04-23T22:15:34.162Z,7.33
2019-04-23T22:17:59.369Z,7.20
2019-04-23T22:20:34.700Z,7.67
2019-04-23T22:23:12.880Z,7.43
2019-04-23T22:25:52.656Z,8.37
2019-04-23T22:28:10.292Z,7.60
2019-04-23T22:30:55.012Z,7.77
2019-04-23T22:33:19.621Z,7.50
2019-04-23T22:35:55.581Z,7.80
2019-04-23T22:38:30.086Z,7.60
2019-04-23T22:41:01.825Z,6.63
2019-04-23T22:43:40.100Z,6.97
2019-04-23T22:49:09.170Z,7.90
2019-04-23T22:51:29.065Z,7.00
2019-04-23T22:54:05.433Z,7.23
2019-04-23T22:56:35.522Z,7.20
2019-04-23T23:04:18.581Z,7.20
2019-04-23T23:06:57.209Z,7.37
2019-04-23T23:09:25.814Z,6.93
2019-04-23T23:11:54.098Z,7.43
2019-04-23T23:14:24.320Z,6.37
2019-04-23T23:16:56.617Z,6.87
2019-04-23T23:19:29.583Z,7.47
2019-04-23T23:22:03.335Z,7.50
2019-04-23T23:24:27.767Z,7.87
2019-04-23T23:27:15.202Z,7.07
2019-04-23T23:29:41.942Z,7.97
2019-04-23T23:32:14.596Z,7.60
2019-04-23T23:35:04.346Z,8.17
2019-04-23T23:37:15.547Z,7.57
2019-04-23T23:39:58.501Z,8.37
2019-04-23T23:42:15.505Z,7.73
2019-04-23T23:45:03.411Z,8.37
2019-04-23T23:47:30.124Z,8.67
2019-04-23T23:50:00.941Z,7.57
2019-04-23T23:52:35.106Z,8.20
2019-04-23T23:55:07.725Z,7.80
2019-04-23T23:57:34.538Z,8.70
